createdAt,value
2022-09-14T00:01:27.813Z,73.78
2022-09-14T00:03:55.895Z,73.32
2022-09-14T00:06:24.061Z,73.20
2022-09-14T00:08:52.713Z,73.13
2022-09-14T00:11:21.152Z,73.80
2022-09-14T00:13:48.386Z,73.49
2022-09-14T00:16:17.789Z,73.10
2022-09-14T00:18:45.605Z,72.73
2022-09-14T00:21:13.029Z,72.99
2022-09-14T00:23:41.172Z,72.58
2022-09-14T00:26:10.127Z,72.83
2022-09-14T00:28:42.243Z,73.90
2022-09-14T00:31:09.947Z,74.07
2022-09-14T00:34:11.577Z,73.47
2022-09-14T00:36:40.398Z,73.71
2022-09-14T00:39:08.749Z,73.57
2022-09-14T00:41:37.376Z,73.27
2022-09-14T00:44:04.609Z,72.94
2022-09-14T00:46:42.370Z,73.31
2022-09-14T00:49:24.165Z,73.81
2022-09-14T00:51:54.395Z,73.64
2022-09-14T00:54:21.750Z,73.96
2022-09-14T00:56:49.492Z,74.38
2022-09-14T00:59:20.657Z,75.15
2022-09-14T01:01:48.355Z,75.90
2022-09-14T01:04:15.629Z,76.33
2022-09-14T01:06:54.904Z,76.27
2022-09-14T01:09:34.105Z,76.23
2022-09-14T01:12:04.353Z,75.63
2022-09-14T01:14:31.857Z,75.46
2022-09-14T01:17:06.814Z,75.68
2022-09-14T01:19:34.202Z,75.62
2022-09-14T01:22:06.418Z,75.86
2022-09-14T01:24:33.577Z,76.29
2022-09-14T01:27:19.454Z,76.44
2022-09-14T01:29:55.238Z,76.21
2022-09-14T01:32:41.042Z,75.67
2022-09-14T01:35:34.511Z,75.59
2022-09-14T01:38:04.057Z,76.19
2022-09-14T01:40:37.344Z,75.43
2022-09-14T01:43:15.136Z,75.21
2022-09-14T01:45:45.329Z,75.19
2022-09-14T01:48:15.312Z,75.25
2022-09-14T01:50:51.289Z,74.88
2022-09-14T01:53:28.623Z,74.45
2022-09-14T01:56:02.968Z,74.00
2022-09-14T01:58:30.119Z,74.35
2022-09-14T02:00:59.435Z,73.87
2022-09-14T02:03:29.887Z,73.04
2022-09-14T02:08:27.428Z,73.85
2022-09-14T02:10:54.692Z,74.53
2022-09-14T02:13:21.933Z,74.71
2022-09-14T02:15:49.208Z,74.83
2022-09-14T02:18:16.782Z,74.78
2022-09-14T02:20:48.833Z,75.16
2022-09-14T02:23:17.211Z,75.58
2022-09-14T02:25:44.977Z,75.94
2022-09-14T02:28:12.573Z,75.71
2022-09-14T02:31:00.209Z,74.33
2022-09-14T02:33:30.450Z,74.42
2022-09-14T02:36:02.269Z,74.55
2022-09-14T02:38:35.869Z,73.95
2022-09-14T02:41:06.804Z,74.29
2022-09-14T02:43:48.148Z,74.21
2022-09-14T02:46:38.600Z,74.43
2022-09-14T02:49:12.420Z,75.31
2022-09-14T02:51:58.529Z,75.16
2022-09-14T02:54:31.888Z,75.74
2022-09-14T02:57:02.529Z,77.91
2022-09-14T02:59:30.173Z,79.33
2022-09-14T03:01:59.050Z,79.44
2022-09-14T03:04:26.355Z,80.51
2022-09-14T03:06:53.586Z,80.86
2022-09-14T03:09:20.801Z,80.06
2022-09-14T03:11:48.003Z,79.86
2022-09-14T03:14:15.229Z,79.30
2022-09-14T03:16:42.425Z,78.75
2022-09-14T03:19:12.244Z,78.63
2022-09-14T03:21:39.915Z,78.25
2022-09-14T03:24:07.659Z,78.45
2022-09-14T03:26:36.979Z,77.87
2022-09-14T03:29:05.545Z,78.01
2022-09-14T03:31:33.585Z,78.33
2022-09-14T03:34:38.302Z,78.67
2022-09-14T03:37:06.420Z,78.65
2022-09-14T03:39:33.618Z,79.37
2022-09-14T03:42:00.820Z,80.35
2022-09-14T03:44:28.121Z,80.87
2022-09-14T03:46:55.297Z,81.23
2022-09-14T03:49:22.469Z,81.64
2022-09-14T03:51:49.678Z,81.46
2022-09-14T03:54:17.001Z,81.55
2022-09-14T03:56:44.172Z,81.32
2022-09-14T03:59:11.377Z,81.13
2022-09-14T04:01:38.579Z,80.83
2022-09-14T04:04:05.992Z,82.92
2022-09-14T04:06:33.166Z,83.66
2022-09-14T04:09:00.350Z,83.11
2022-09-14T04:11:28.956Z,82.50
2022-09-14T04:13:56.109Z,81.94
2022-09-14T04:16:23.386Z,81.95
2022-09-14T04:18:50.603Z,81.94
2022-09-14T04:21:19.263Z,83.31
2022-09-14T04:24:10.503Z,84.04
2022-09-14T04:26:34.255Z,83.77
2022-09-14T04:29:01.705Z,84.14
2022-09-14T04:31:30.167Z,83.34
2022-09-14T04:33:57.477Z,82.02
2022-09-14T04:36:28.784Z,81.69
2022-09-14T04:38:59.007Z,82.26
2022-09-14T04:41:26.620Z,81.46
2022-09-14T04:43:54.468Z,81.26
2022-09-14T04:46:26.136Z,81.29
2022-09-14T04:48:53.706Z,80.63
2022-09-14T04:51:22.740Z,81.26
2022-09-14T04:53:51.236Z,82.37
2022-09-14T04:56:19.564Z,82.81
2022-09-14T04:58:51.472Z,82.62
2022-09-14T05:01:22.638Z,81.51
2022-09-14T05:03:50.529Z,81.27
2022-09-14T05:06:21.837Z,81.04
2022-09-14T05:08:49.602Z,81.08
2022-09-14T05:11:18.595Z,80.98
2022-09-14T05:13:49.670Z,80.45
2022-09-14T05:16:22.300Z,79.97
2022-09-14T05:18:50.381Z,80.15
2022-09-14T05:21:18.722Z,80.79
2022-09-14T05:23:46.737Z,81.02
2022-09-14T05:26:14.606Z,80.56
2022-09-14T05:28:41.868Z,81.29
2022-09-14T05:31:10.203Z,81.39
2022-09-14T05:33:37.544Z,81.28
2022-09-14T05:36:06.149Z,81.11
2022-09-14T05:38:34.553Z,81.77
2022-09-14T05:41:01.889Z,81.36
2022-09-14T05:43:29.584Z,80.72
2022-09-14T05:46:00.698Z,80.20
2022-09-14T05:48:30.784Z,80.71
2022-09-14T05:50:59.158Z,80.61
2022-09-14T05:53:26.733Z,79.97
2022-09-14T05:56:06.971Z,81.06
2022-09-14T05:58:36.348Z,81.64
2022-09-14T06:01:09.805Z,81.61
2022-09-14T06:03:37.183Z,80.01
2022-09-14T06:06:05.476Z,79.59
2022-09-14T06:08:33.421Z,79.65
2022-09-14T06:11:08.042Z,79.65
2022-09-14T06:13:35.741Z,80.16
2022-09-14T06:16:13.334Z,80.00
2022-09-14T06:18:41.250Z,79.92
2022-09-14T06:21:09.265Z,79.60
2022-09-14T06:23:36.919Z,79.51
2022-09-14T06:26:04.892Z,79.27
2022-09-14T06:28:32.633Z,79.54
2022-09-14T06:31:00.247Z,79.99
2022-09-14T06:33:27.464Z,80.14
2022-09-14T06:35:58.864Z,79.74
2022-09-14T06:38:26.835Z,79.34
2022-09-14T06:40:53.947Z,78.78
2022-09-14T06:43:21.177Z,77.87
2022-09-14T06:46:04.841Z,77.65
2022-09-14T06:48:34.369Z,77.83
2022-09-14T06:51:10.580Z,78.14
2022-09-14T06:53:37.716Z,77.94
2022-09-14T06:56:05.203Z,78.97
2022-09-14T06:58:33.890Z,79.11
2022-09-14T07:01:01.943Z,80.28
2022-09-14T07:03:29.125Z,78.80
2022-09-14T07:06:06.573Z,76.99
2022-09-14T07:08:34.668Z,75.90
2022-09-14T07:11:01.858Z,76.36
2022-09-14T07:13:29.850Z,76.11
2022-09-14T07:15:57.048Z,76.10
2022-09-14T07:18:30.033Z,75.04
2022-09-14T07:21:05.295Z,73.91
2022-09-14T07:23:33.750Z,73.37
2022-09-14T07:26:01.928Z,73.66
2022-09-14T07:28:29.068Z,74.49
2022-09-14T07:30:59.026Z,74.93
2022-09-14T07:33:26.746Z,75.50
2022-09-14T07:35:54.824Z,75.15
2022-09-14T07:38:41.517Z,75.26
2022-09-14T07:41:09.394Z,74.84
2022-09-14T07:43:36.630Z,74.03
2022-09-14T07:46:04.653Z,73.97
2022-09-14T07:48:33.061Z,73.39
2022-09-14T07:51:00.934Z,73.19
2022-09-14T07:53:28.598Z,72.59
2022-09-14T07:55:58.456Z,72.71
2022-09-14T07:58:25.849Z,72.09
2022-09-14T08:00:57.499Z,72.40
2022-09-14T08:03:24.729Z,72.69
2022-09-14T08:06:01.776Z,71.35
2022-09-14T08:08:30.494Z,70.96
2022-09-14T08:11:08.363Z,70.03
2022-09-14T08:13:35.802Z,69.03
2022-09-14T08:16:03.510Z,68.94
2022-09-14T08:18:31.259Z,68.83
2022-09-14T08:21:03.349Z,68.54
2022-09-14T08:23:30.543Z,68.14
2022-09-14T08:26:01.902Z,68.89
2022-09-14T08:28:29.075Z,68.56
2022-09-14T08:30:56.319Z,69.08
2022-09-14T08:33:23.544Z,69.15
2022-09-14T08:35:58.492Z,69.38
2022-09-14T08:38:25.800Z,69.04
2022-09-14T08:40:53.239Z,68.89
2022-09-14T08:43:22.980Z,69.70
2022-09-14T08:45:51.110Z,69.07
2022-09-14T08:48:26.881Z,68.28
2022-09-14T08:50:54.376Z,68.00
2022-09-14T08:53:24.502Z,68.59
2022-09-14T08:55:54.519Z,68.29
2022-09-14T08:58:31.110Z,67.25
2022-09-14T09:01:08.788Z,66.75
2022-09-14T09:03:42.266Z,66.20
2022-09-14T09:06:15.784Z,66.37
2022-09-14T09:08:49.495Z,66.70
2022-09-14T09:11:21.413Z,65.94
2022-09-14T09:13:49.941Z,66.47
2022-09-14T09:16:18.827Z,67.12
2022-09-14T09:18:48.142Z,67.71
2022-09-14T09:21:35.681Z,68.79
2022-09-14T09:24:16.553Z,68.83
2022-09-14T09:26:43.698Z,69.17
2022-09-14T09:29:11.593Z,68.64
2022-09-14T09:31:59.120Z,69.15
2022-09-14T09:34:48.185Z,69.52
2022-09-14T09:37:46.527Z,69.96
2022-09-14T09:40:15.571Z,70.51
2022-09-14T09:43:03.140Z,70.82
2022-09-14T09:45:46.467Z,70.69
2022-09-14T09:48:14.835Z,70.37
2022-09-14T09:51:01.430Z,68.77
2022-09-14T09:53:29.141Z,68.32
2022-09-14T09:55:56.635Z,68.66
2022-09-14T09:58:28.292Z,67.67
2022-09-14T10:01:00.381Z,66.93
2022-09-14T10:03:31.908Z,66.22
2022-09-14T10:06:02.091Z,66.08
2022-09-14T10:08:34.813Z,66.21
2022-09-14T10:11:03.430Z,66.75
2022-09-14T10:13:36.436Z,66.92
2022-09-14T10:16:15.005Z,66.43
2022-09-14T10:18:48.246Z,66.18
2022-09-14T10:21:18.773Z,66.04
2022-09-14T10:23:46.273Z,64.63
2022-09-14T10:26:17.163Z,64.51
2022-09-14T10:28:45.830Z,64.13
2022-09-14T10:31:17.128Z,63.87
2022-09-14T10:33:48.441Z,63.12
2022-09-14T10:36:31.021Z,63.01
2022-09-14T10:39:25.890Z,62.93
2022-09-14T10:41:57.697Z,62.61
2022-09-14T10:44:44.031Z,61.61
2022-09-14T10:47:21.500Z,61.25
2022-09-14T10:50:07.019Z,62.26
2022-09-14T10:52:50.465Z,63.13
2022-09-14T10:55:37.036Z,62.53
2022-09-14T10:58:04.421Z,61.56
2022-09-14T11:00:38.672Z,61.65
2022-09-14T11:03:24.259Z,61.41
2022-09-14T11:06:06.556Z,61.35
2022-09-14T11:08:40.018Z,61.41
2022-09-14T11:11:27.495Z,59.38
2022-09-14T11:14:02.214Z,58.98
2022-09-14T11:16:32.556Z,58.92
2022-09-14T11:19:23.094Z,58.20
2022-09-14T11:21:53.353Z,59.10
2022-09-14T11:24:33.399Z,59.55
2022-09-14T11:27:03.231Z,59.28
2022-09-14T11:29:33.025Z,58.78
2022-09-14T11:32:20.366Z,56.77
2022-09-14T11:37:52.595Z,56.67
2022-09-14T11:40:25.014Z,57.28
2022-09-14T11:42:58.387Z,56.30
2022-09-14T11:45:37.296Z,55.80
2022-09-14T11:48:42.263Z,56.53
2022-09-14T11:51:16.718Z,56.14
2022-09-14T11:53:44.086Z,56.64
2022-09-14T11:56:30.695Z,56.40
2022-09-14T11:59:04.168Z,55.99
2022-09-14T12:01:31.599Z,56.50
2022-09-14T12:04:02.012Z,56.70
2022-09-14T12:06:32.074Z,56.90
2022-09-14T12:09:11.202Z,56.28
2022-09-14T12:11:38.537Z,56.44
2022-09-14T12:14:23.709Z,56.24
2022-09-14T12:17:28.979Z,56.21
2022-09-14T12:19:59.623Z,55.89
2022-09-14T12:22:32.578Z,55.88
2022-09-14T12:25:08.640Z,56.03
2022-09-14T12:27:40.257Z,55.16
2022-09-14T12:30:26.325Z,54.73
2022-09-14T12:32:53.472Z,54.72
2022-09-14T12:35:32.789Z,54.72
2022-09-14T12:38:00.849Z,54.72
2022-09-14T12:40:36.414Z,55.74
2022-09-14T12:43:22.326Z,55.51
2022-09-14T12:46:00.947Z,55.16
2022-09-14T12:48:48.514Z,55.10
2022-09-14T12:51:15.707Z,54.38
2022-09-14T12:53:43.794Z,54.43
2022-09-14T12:56:18.929Z,54.11
2022-09-14T12:58:53.544Z,53.90
2022-09-14T13:01:28.697Z,53.42
2022-09-14T13:03:57.005Z,52.31
2022-09-14T13:06:26.987Z,52.63
2022-09-14T13:08:56.657Z,52.76
2022-09-14T13:11:42.127Z,51.58
2022-09-14T13:14:19.096Z,52.91
2022-09-14T13:16:47.973Z,53.38
2022-09-14T13:19:28.893Z,53.57
2022-09-14T13:21:57.305Z,54.28
2022-09-14T13:24:42.635Z,54.33
2022-09-14T13:27:28.889Z,55.00
2022-09-14T13:30:05.150Z,55.19
2022-09-14T13:32:34.080Z,55.52
2022-09-14T13:35:03.991Z,55.89
2022-09-14T13:37:31.573Z,55.76
2022-09-14T13:39:59.091Z,55.92
2022-09-14T13:42:26.563Z,56.02
2022-09-14T13:44:53.829Z,55.78
2022-09-14T13:47:22.420Z,55.53
2022-09-14T13:49:50.706Z,55.64
2022-09-14T13:52:34.011Z,55.25
2022-09-14T13:55:22.112Z,55.54
2022-09-14T13:58:13.161Z,55.99
2022-09-14T14:01:00.715Z,56.21
2022-09-14T14:03:29.401Z,56.43
2022-09-14T14:05:57.182Z,56.94
2022-09-14T14:08:24.544Z,57.22
2022-09-14T14:10:54.041Z,57.73
2022-09-14T14:13:24.714Z,58.00
2022-09-14T14:15:53.745Z,57.72
2022-09-14T14:18:36.163Z,57.45
2022-09-14T14:21:04.474Z,57.07
2022-09-14T14:23:31.671Z,57.04
2022-09-14T14:26:07.017Z,57.34
2022-09-14T14:28:34.328Z,57.87
2022-09-14T14:31:09.972Z,57.91
2022-09-14T14:33:43.853Z,58.21
2022-09-14T14:36:10.999Z,58.52
2022-09-14T14:38:45.075Z,58.90
2022-09-14T14:41:14.235Z,58.73
2022-09-14T14:43:42.188Z,58.80
2022-09-14T14:46:09.550Z,58.96
2022-09-14T14:48:37.204Z,58.59
2022-09-14T14:51:05.233Z,58.55
2022-09-14T14:53:32.437Z,58.49
2022-09-14T14:55:59.683Z,58.80
2022-09-14T14:58:26.979Z,59.12
2022-09-14T15:00:54.857Z,59.60
2022-09-14T15:03:22.294Z,59.60
2022-09-14T15:05:49.696Z,59.86
2022-09-14T15:08:17.869Z,60.09
2022-09-14T15:10:45.891Z,59.95
2022-09-14T15:13:13.348Z,60.14
2022-09-14T15:15:42.952Z,60.46
2022-09-14T15:18:10.262Z,60.46
2022-09-14T15:20:37.642Z,60.83
2022-09-14T15:23:04.922Z,61.04
2022-09-14T15:25:32.343Z,60.80
2022-09-14T15:28:00.125Z,61.06
2022-09-14T15:30:27.397Z,61.14
2022-09-14T15:32:54.670Z,61.30
2022-09-14T15:35:54.993Z,61.33
2022-09-14T15:38:22.444Z,61.74
2022-09-14T15:40:49.695Z,62.04
2022-09-14T15:43:17.112Z,62.40
2022-09-14T15:45:44.425Z,62.56
2022-09-14T15:48:12.877Z,62.77
2022-09-14T15:50:44.431Z,63.09
2022-09-14T15:53:12.594Z,63.91
2022-09-14T15:55:44.108Z,65.56
2022-09-14T15:58:11.628Z,65.74
2022-09-14T16:00:42.443Z,67.93
2022-09-14T16:03:09.688Z,69.34
2022-09-14T16:05:38.053Z,71.55
2022-09-14T16:08:05.193Z,77.23
2022-09-14T16:10:32.513Z,77.75
2022-09-14T16:12:59.720Z,79.03
2022-09-14T16:15:26.918Z,79.68
2022-09-14T16:17:55.436Z,80.92
2022-09-14T16:20:23.160Z,79.81
2022-09-14T16:22:50.732Z,80.04
2022-09-14T16:25:18.387Z,79.66
2022-09-14T16:27:45.651Z,78.22
2022-09-14T16:30:13.036Z,77.87
2022-09-14T16:32:40.272Z,78.70
2022-09-14T16:35:08.431Z,78.43
2022-09-14T16:37:35.836Z,78.14
2022-09-14T16:40:03.704Z,79.89
2022-09-14T16:42:30.973Z,81.12
2022-09-14T16:44:58.159Z,81.92
2022-09-14T16:47:25.792Z,82.32
2022-09-14T16:49:53.299Z,82.69
2022-09-14T16:52:20.494Z,82.62
2022-09-14T16:54:47.710Z,83.03
2022-09-14T16:57:14.910Z,83.44
2022-09-14T16:59:42.165Z,82.69
2022-09-14T17:02:12.543Z,82.69
2022-09-14T17:04:39.819Z,81.81
2022-09-14T17:07:07.223Z,81.64
2022-09-14T17:09:34.429Z,81.33
2022-09-14T17:12:01.761Z,80.37
2022-09-14T17:14:30.728Z,80.26
2022-09-14T17:16:58.702Z,80.32
2022-09-14T17:19:26.783Z,80.65
2022-09-14T17:21:54.217Z,81.37
2022-09-14T17:24:21.768Z,81.50
2022-09-14T17:26:49.465Z,81.28
2022-09-14T17:29:16.753Z,83.77
2022-09-14T17:31:44.892Z,84.93
2022-09-14T17:34:13.452Z,85.00
2022-09-14T17:36:40.765Z,84.79
2022-09-14T17:39:11.912Z,84.28
2022-09-14T17:41:40.278Z,84.27
2022-09-14T17:44:10.587Z,85.11
2022-09-14T17:46:45.989Z,85.63
2022-09-14T17:49:16.143Z,86.58
2022-09-14T17:51:45.253Z,86.16
2022-09-14T17:54:13.281Z,85.38
2022-09-14T17:56:41.012Z,84.97
2022-09-14T17:59:10.969Z,84.72
2022-09-14T18:01:38.269Z,85.54
2022-09-14T18:04:07.489Z,85.63
2022-09-14T18:06:36.008Z,86.08
2022-09-14T18:09:07.882Z,88.18
2022-09-14T18:11:36.415Z,89.27
2022-09-14T18:14:04.033Z,88.65
2022-09-14T18:16:31.718Z,88.71
2022-09-14T18:18:59.158Z,89.12
2022-09-14T18:21:26.459Z,90.25
2022-09-14T18:23:54.395Z,89.53
2022-09-14T18:26:22.324Z,88.90
2022-09-14T18:28:50.966Z,88.67
2022-09-14T18:31:19.902Z,88.78
2022-09-14T18:33:52.044Z,88.42
2022-09-14T18:36:20.179Z,88.27
2022-09-14T18:38:48.665Z,89.15
2022-09-14T18:41:16.604Z,90.80
2022-09-14T18:43:47.877Z,90.81
2022-09-14T18:46:15.419Z,93.37
2022-09-14T18:48:45.564Z,93.80
2022-09-14T18:51:14.085Z,94.57
2022-09-14T18:53:41.915Z,95.16
2022-09-14T18:56:10.856Z,95.40
2022-09-14T18:58:39.817Z,94.04
2022-09-14T19:01:07.993Z,92.36
2022-09-14T19:03:35.907Z,92.84
2022-09-14T19:06:07.317Z,93.29
2022-09-14T19:08:34.835Z,92.32
2022-09-14T19:11:09.645Z,91.51
2022-09-14T19:13:37.339Z,91.01
2022-09-14T19:16:05.374Z,90.88
2022-09-14T19:18:33.439Z,90.82
2022-09-14T19:21:08.109Z,90.06
2022-09-14T19:23:36.365Z,91.54
2022-09-14T19:26:08.100Z,89.40
2022-09-14T19:28:35.682Z,88.50
2022-09-14T19:31:10.165Z,87.19
2022-09-14T19:33:39.241Z,87.34
2022-09-14T19:36:10.761Z,88.02
2022-09-14T19:38:38.404Z,87.75
2022-09-14T19:41:06.004Z,87.60
2022-09-14T19:43:33.641Z,87.92
2022-09-14T19:46:05.258Z,87.20
2022-09-14T19:48:33.061Z,86.43
2022-09-14T19:51:01.157Z,84.93
2022-09-14T19:53:29.105Z,84.75
2022-09-14T19:55:56.504Z,85.39
2022-09-14T19:58:26.164Z,85.25
2022-09-14T20:00:54.595Z,84.96
2022-09-14T20:03:22.565Z,85.44
2022-09-14T20:05:58.949Z,86.21
2022-09-14T20:08:26.255Z,86.84
2022-09-14T20:10:53.504Z,86.70
2022-09-14T20:13:20.866Z,86.65
2022-09-14T20:15:48.112Z,86.13
2022-09-14T20:18:15.355Z,86.25
2022-09-14T20:20:42.713Z,86.66
2022-09-14T20:23:11.266Z,87.06
2022-09-14T20:25:38.536Z,87.25
2022-09-14T20:28:05.727Z,88.31
2022-09-14T20:30:33.098Z,90.04
2022-09-14T20:33:00.445Z,89.69
2022-09-14T20:35:29.607Z,88.93
2022-09-14T20:37:56.845Z,88.03
2022-09-14T20:40:24.579Z,89.22
2022-09-14T20:42:51.815Z,89.29
2022-09-14T20:45:19.172Z,89.15
2022-09-14T20:47:46.363Z,88.19
2022-09-14T20:50:13.775Z,88.57
2022-09-14T20:52:40.985Z,88.55
2022-09-14T20:55:08.867Z,88.55
2022-09-14T20:57:36.014Z,88.27
2022-09-14T21:00:03.452Z,88.43
2022-09-14T21:02:31.112Z,89.45
2022-09-14T21:04:58.288Z,89.23
2022-09-14T21:07:25.601Z,86.94
2022-09-14T21:09:53.060Z,86.29
2022-09-14T21:12:20.282Z,86.25
2022-09-14T21:14:48.064Z,87.83
2022-09-14T21:17:17.136Z,89.17
2022-09-14T21:19:45.433Z,89.84
2022-09-14T21:22:12.742Z,90.11
2022-09-14T21:24:40.008Z,89.52
2022-09-14T21:27:07.771Z,88.47
2022-09-14T21:29:34.981Z,87.92
2022-09-14T21:32:06.895Z,88.77
2022-09-14T21:34:36.197Z,89.02
2022-09-14T21:37:03.676Z,88.21
2022-09-14T21:39:31.087Z,88.07
2022-09-14T21:41:59.652Z,88.81
2022-09-14T21:44:28.405Z,88.45
2022-09-14T21:46:55.633Z,87.71
2022-09-14T21:49:22.908Z,89.03
2022-09-14T21:51:50.150Z,91.06
2022-09-14T21:54:17.596Z,89.89
2022-09-14T21:56:45.503Z,89.02
2022-09-14T21:59:17.377Z,90.28
2022-09-14T22:01:45.059Z,91.37
2022-09-14T22:04:14.130Z,90.11
2022-09-14T22:06:41.398Z,90.53
2022-09-14T22:09:08.649Z,89.36
2022-09-14T22:11:37.087Z,91.01
2022-09-14T22:14:06.424Z,90.46
2022-09-14T22:16:35.253Z,89.35
2022-09-14T22:19:04.580Z,88.64
2022-09-14T22:21:34.703Z,88.88
2022-09-14T22:24:03.343Z,90.18
2022-09-14T22:26:31.573Z,89.83
2022-09-14T22:28:59.197Z,90.60
2022-09-14T22:31:27.224Z,91.04
2022-09-14T22:33:55.375Z,90.53
2022-09-14T22:36:25.725Z,89.20
2022-09-14T22:38:59.371Z,88.26
2022-09-14T22:41:27.661Z,87.50
2022-09-14T22:43:55.352Z,88.37
2022-09-14T22:46:23.015Z,88.88
2022-09-14T22:48:50.898Z,89.53
2022-09-14T22:51:20.543Z,89.58
2022-09-14T22:54:06.429Z,89.55
2022-09-14T22:56:35.409Z,88.55
2022-09-14T22:59:04.306Z,85.89
2022-09-14T23:01:32.929Z,86.35
2022-09-14T23:04:02.025Z,87.96
2022-09-14T23:06:30.209Z,88.84
2022-09-14T23:08:57.381Z,87.67
2022-09-14T23:11:24.800Z,87.07
2022-09-14T23:13:51.965Z,86.41
2022-09-14T23:16:20.288Z,85.43
2022-09-14T23:18:54.708Z,86.74
2022-09-14T23:21:22.085Z,89.01
2022-09-14T23:23:53.196Z,88.97
2022-09-14T23:26:21.011Z,88.16
2022-09-14T23:29:07.331Z,88.62
2022-09-14T23:31:35.109Z,89.15
2022-09-14T23:34:02.941Z,87.51
2022-09-14T23:36:30.622Z,86.71
2022-09-14T23:38:58.074Z,88.37
2022-09-14T23:41:25.826Z,88.62
2022-09-14T23:43:53.013Z,90.46
2022-09-14T23:46:20.946Z,89.71
2022-09-14T23:48:48.237Z,89.62
2022-09-14T23:51:15.782Z,89.80
2022-09-14T23:53:43.282Z,88.99
2022-09-14T23:56:11.075Z,87.51
2022-09-14T23:58:38.358Z,87.50
